aviador You're here:

KS32 Decoded Metar

in
Report Time2017-10-21 15:55:00
UTC Time2017-10-21 15:54:38
Flight Rules vfr VFR
Wind280° at 18 Gusting to 25 kt
W.Rank280° ranks 12
Current wind is above 280° avg. (10.6)
Visibility9999 m
Phenomena:N/A
Clouds:N/A
Expected CloudBase > 2,800 ft AGL from Temp-Dew spread
CeilingNone
Temp13°C
Dew Point06°C (63% RH)
AAT5.6°C
QNH999 hPa
Raw Report
METAR KS32 211555Z AUTO 28018G25KT 10SM CLR 13/06 A2949 RMK AO2=

Extra information for KS32:More info

Social comments